Time;durP1;ratioP1;P1;durP2;ratioP2;P2;SDS_P1;SDS_P2;PMS_P1;PMS_P2;Temp;Humidity;BMP_temperature;BMP_pressure;BME280_temperature;BME280_humidity;BME280_pressure;Samples;Min_cycle;Max_cycle;Signal;HPM_P1;HPM_P2
2022/10/29 00:01:48;;;;;;;10.02;4.78;;;18.30;99.50;;;;;;5031483;28;20024;-69
2022/10/29 00:04:13;;;;;;;13.43;4.95;;;18.30;99.50;;;;;;5040975;28;20037;-69
2022/10/29 00:06:39;;;;;;;7.40;4.60;;;18.30;99.40;;;;;;5038382;28;20108;-69
2022/10/29 00:09:05;;;;;;;12.65;6.07;;;18.30;99.40;;;;;;5032977;28;20029;-69
2022/10/29 00:11:30;;;;;;;11.93;5.30;;;18.30;99.40;;;;;;5030522;28;20022;-69
2022/10/29 00:13:59;;;;;;;11.70;5.03;;;18.30;99.50;;;;;;5033112;28;20056;-69
2022/10/29 00:16:28;;;;;;;9.40;4.75;;;18.30;99.50;;;;;;5032794;28;20029;-69
2022/10/29 00:18:55;;;;;;;13.57;4.93;;;18.30;99.50;;;;;;5033753;28;20384;-69
2022/10/29 00:21:23;;;;;;;11.73;4.95;;;18.30;99.50;;;;;;5033319;28;20040;-70
2022/10/29 00:23:50;;;;;;;9.85;4.93;;;18.30;99.50;;;;;;5032863;28;20038;-69
2022/10/29 00:26:18;;;;;;;10.20;5.35;;;18.20;99.40;;;;;;5031227;28;20034;-70
2022/10/29 00:28:44;;;;;;;11.98;6.63;;;18.20;99.50;;;;;;5032607;28;20025;-68
2022/10/29 00:31:17;;;;;;;8.95;5.13;;;18.20;99.50;;;;;;5022215;28;20040;-68
2022/10/29 00:33:43;;;;;;;10.35;4.60;;;18.20;99.50;;;;;;5032149;28;20392;-69
2022/10/29 00:36:14;;;;;;;11.30;5.13;;;18.20;99.60;;;;;;5032046;28;20077;-69
2022/10/29 00:38:41;;;;;;;12.25;5.72;;;18.20;99.60;;;;;;5034771;28;20416;-69
2022/10/29 00:41:09;;;;;;;8.10;4.93;;;18.20;99.70;;;;;;5042899;28;20025;-68
2022/10/29 00:43:37;;;;;;;10.98;4.93;;;18.20;99.70;;;;;;5032307;28;20535;-69
2022/10/29 00:46:10;;;;;;;11.77;5.32;;;18.20;99.70;;;;;;5031189;28;20037;-69
2022/10/29 00:48:41;;;;;;;10.18;5.00;;;18.10;99.60;;;;;;5032645;28;20028;-69
2022/10/29 00:51:09;;;;;;;11.45;6.13;;;18.10;99.60;;;;;;5038442;28;20056;-68
2022/10/29 00:53:41;;;;;;;14.38;6.18;;;18.10;99.60;;;;;;5036624;28;20056;-69
2022/10/29 00:56:07;;;;;;;12.15;5.88;;;18.10;99.60;;;;;;5043347;28;20057;-69
2022/10/29 00:58:34;;;;;;;13.23;5.55;;;18.10;99.60;;;;;;5031695;28;20057;-69
2022/10/29 01:01:00;;;;;;;13.88;5.53;;;18.10;99.70;;;;;;5027895;28;20022;-69
2022/10/29 01:03:27;;;;;;;14.05;6.00;;;18.10;99.70;;;;;;5012700;28;20034;-69
2022/10/29 01:05:53;;;;;;;10.40;5.50;;;18.10;99.70;;;;;;5022046;28;20033;-69
2022/10/29 01:08:20;;;;;;;13.15;5.18;;;18.10;99.70;;;;;;5039088;28;20108;-69
2022/10/29 01:11:15;;;;;;;8.95;5.00;;;18.10;99.70;;;;;;5035422;28;20237;-70
2022/10/29 01:14:08;;;;;;;13.32;5.60;;;18.10;99.70;;;;;;5029268;28;20033;-69
2022/10/29 01:16:51;;;;;;;11.05;5.05;;;18.10;99.70;;;;;;5021140;28;20029;-69
2022/10/29 01:19:49;;;;;;;15.15;6.22;;;18.10;99.70;;;;;;5032581;28;20029;-69
2022/10/29 01:22:23;;;;;;;12.48;5.60;;;18.10;99.80;;;;;;5030421;28;22056;-69
2022/10/29 01:25:11;;;;;;;8.40;4.38;;;18.00;99.80;;;;;;5031334;28;20041;-68
2022/10/29 01:27:40;;;;;;;10.57;6.32;;;18.10;99.90;;;;;;5031447;28;20037;-69
2022/10/29 01:30:20;;;;;;;9.23;5.18;;;18.00;99.90;;;;;;5032053;28;20044;-69
2022/10/29 01:32:54;;;;;;;11.23;5.47;;;18.10;99.90;;;;;;5031017;28;20471;-69
2022/10/29 01:35:59;;;;;;;9.77;5.38;;;18.10;99.90;;;;;;5031910;28;20104;-70
2022/10/29 01:38:52;;;;;;;13.90;5.60;;;18.10;99.90;;;;;;5009928;28;20547;-69
2022/10/29 01:41:28;;;;;;;11.40;5.32;;;18.10;99.90;;;;;;5013298;28;20034;-69
2022/10/29 01:44:25;;;;;;;12.27;5.70;;;18.00;99.90;;;;;;5020071;28;20045;-69
2022/10/29 01:46:59;;;;;;;10.93;5.55;;;18.00;99.90;;;;;;5031353;28;20080;-69
2022/10/29 01:49:36;;;;;;;14.50;6.37;;;18.00;99.90;;;;;;5029474;28;20067;-69
2022/10/29 01:52:04;;;;;;;12.38;5.95;;;18.00;99.90;;;;;;5031688;28;20045;-69
2022/10/29 01:54:30;;;;;;;7.93;5.00;;;18.00;99.90;;;;;;5030965;28;20489;-69
2022/10/29 01:56:57;;;;;;;10.25;5.40;;;18.00;99.90;;;;;;5030638;28;20017;-69
2022/10/29 01:59:28;;;;;;;12.25;5.78;;;18.00;99.90;;;;;;5017322;28;20349;-69
2022/10/29 02:02:40;;;;;;;13.25;5.63;;;18.00;99.90;;;;;;5018052;28;20026;-70
2022/10/29 02:05:16;;;;;;;13.98;6.20;;;18.00;99.90;;;;;;5018417;28;20079;-70
2022/10/29 02:07:53;;;;;;;11.85;5.28;;;18.00;99.90;;;;;;5018235;28;20034;-69
2022/10/29 02:10:37;;;;;;;11.00;5.22;;;17.90;99.90;;;;;;5020254;28;20033;-69
2022/10/29 02:13:05;;;;;;;12.00;6.20;;;17.90;99.90;;;;;;5021844;28;20033;-69
2022/10/29 02:15:37;;;;;;;12.80;6.03;;;17.90;99.90;;;;;;5018998;28;20033;-70
2022/10/29 02:18:05;;;;;;;10.77;5.22;;;17.90;99.90;;;;;;5017766;28;20025;-70
2022/10/29 02:20:33;;;;;;;15.75;5.80;;;17.90;99.90;;;;;;5017161;28;20439;-69
2022/10/29 02:22:59;;;;;;;9.05;5.43;;;17.90;99.90;;;;;;5018202;28;20071;-70
2022/10/29 02:25:26;;;;;;;14.02;5.95;;;17.90;99.90;;;;;;5005168;28;20064;-69
2022/10/29 02:27:51;;;;;;;10.20;5.07;;;17.90;99.90;;;;;;5016465;28;20505;-69
2022/10/29 02:30:17;;;;;;;9.82;5.28;;;17.90;99.90;;;;;;5016386;28;20029;-69
2022/10/29 02:32:43;;;;;;;11.95;5.45;;;17.80;99.90;;;;;;5030685;28;20083;-69
2022/10/29 02:35:08;;;;;;;15.15;7.13;;;17.80;99.90;;;;;;5029277;28;20065;-70
2022/10/29 02:37:34;;;;;;;11.95;5.55;;;17.80;99.90;;;;;;5030742;28;20022;-70
2022/10/29 02:40:00;;;;;;;12.45;6.10;;;17.80;99.90;;;;;;5025499;28;20026;-69
2022/10/29 02:42:26;;;;;;;10.95;5.78;;;17.80;99.90;;;;;;5031466;28;20045;-69
2022/10/29 02:44:51;;;;;;;11.82;6.05;;;17.80;99.90;;;;;;5030201;28;20076;-69
2022/10/29 02:47:18;;;;;;;14.30;6.38;;;17.80;99.90;;;;;;5031255;28;20030;-69
2022/10/29 02:49:44;;;;;;;11.20;6.05;;;17.80;99.90;;;;;;5030797;28;20033;-69
2022/10/29 02:52:09;;;;;;;12.77;5.20;;;17.80;99.90;;;;;;5031314;28;20025;-69
2022/10/29 02:54:35;;;;;;;10.80;5.53;;;17.80;99.90;;;;;;5024865;28;21793;-69
2022/10/29 02:57:00;;;;;;;10.30;5.80;;;17.80;99.90;;;;;;5031641;28;20037;-69
2022/10/29 02:59:26;;;;;;;8.70;5.32;;;17.80;99.90;;;;;;5030978;28;20025;-69
2022/10/29 03:01:52;;;;;;;10.15;5.63;;;17.80;99.90;;;;;;5031354;28;20030;-69
2022/10/29 03:04:17;;;;;;;16.08;5.70;;;17.80;99.90;;;;;;5029934;28;20038;-69
2022/10/29 03:06:43;;;;;;;13.32;5.78;;;17.80;99.90;;;;;;5030919;28;20018;-69
2022/10/29 03:09:08;;;;;;;14.95;7.68;;;17.80;99.90;;;;;;5031031;28;20025;-69
2022/10/29 03:11:34;;;;;;;9.57;5.65;;;17.80;99.90;;;;;;5030704;28;20021;-67
2022/10/29 03:14:00;;;;;;;12.98;5.55;;;17.80;99.90;;;;;;5030175;28;20032;-68
2022/10/29 03:16:25;;;;;;;13.65;5.93;;;17.80;99.90;;;;;;5022209;28;20056;-69
2022/10/29 03:18:51;;;;;;;11.05;5.30;;;17.70;99.90;;;;;;5018591;28;20030;-70
2022/10/29 03:21:16;;;;;;;11.35;5.00;;;17.70;99.90;;;;;;5019494;28;20157;-69
2022/10/29 03:23:42;;;;;;;10.65;5.13;;;17.70;99.90;;;;;;5019884;28;20163;-69
2022/10/29 03:26:09;;;;;;;10.10;5.57;;;17.70;99.90;;;;;;5021079;28;20037;-69
2022/10/29 03:28:35;;;;;;;8.60;6.00;;;17.70;99.90;;;;;;5021222;28;20036;-69
2022/10/29 03:31:01;;;;;;;11.13;5.82;;;17.70;99.90;;;;;;5020183;28;20033;-69
2022/10/29 03:33:27;;;;;;;11.25;6.47;;;17.70;99.90;;;;;;5022138;28;20057;-69
2022/10/29 03:36:02;;;;;;;11.65;6.07;;;17.70;99.90;;;;;;5030287;28;20365;-69
2022/10/29 03:38:28;;;;;;;11.10;5.75;;;17.60;99.90;;;;;;5024590;28;20053;-69
2022/10/29 03:40:56;;;;;;;12.65;6.20;;;17.60;99.90;;;;;;5024470;28;20063;-69
2022/10/29 03:43:21;;;;;;;11.07;5.93;;;17.60;99.90;;;;;;5021437;28;20508;-69
2022/10/29 03:45:54;;;;;;;12.55;5.30;;;17.60;99.90;;;;;;5024909;28;20038;-69
2022/10/29 03:48:20;;;;;;;12.52;6.35;;;17.60;99.90;;;;;;5022776;28;20121;-68
2022/10/29 03:50:58;;;;;;;11.95;6.20;;;17.60;99.90;;;;;;5024485;28;20044;-69
2022/10/29 03:53:24;;;;;;;10.82;5.50;;;17.60;99.90;;;;;;5023679;28;20485;-69
2022/10/29 03:55:51;;;;;;;8.38;5.10;;;17.50;99.90;;;;;;5022180;28;20390;-68
2022/10/29 03:58:18;;;;;;;9.57;6.55;;;17.50;99.90;;;;;;5022203;28;20044;-68
2022/10/29 04:00:52;;;;;;;11.95;6.28;;;17.50;99.90;;;;;;5024101;28;20108;-69
2022/10/29 04:03:18;;;;;;;12.32;5.60;;;17.50;99.90;;;;;;5022200;28;20405;-69
2022/10/29 04:05:44;;;;;;;11.48;6.00;;;17.50;99.90;;;;;;5022479;28;20038;-69
2022/10/29 04:08:09;;;;;;;13.43;5.93;;;17.50;99.90;;;;;;5020879;28;20986;-69
2022/10/29 04:10:35;;;;;;;11.52;6.03;;;17.50;99.90;;;;;;5018758;28;20397;-69
2022/10/29 04:13:00;;;;;;;13.20;6.43;;;17.50;99.90;;;;;;5019374;28;20053;-69
2022/10/29 04:15:26;;;;;;;12.40;6.18;;;17.50;99.90;;;;;;5019277;28;20455;-68
2022/10/29 04:17:52;;;;;;;10.73;5.68;;;17.50;99.90;;;;;;5023398;28;20039;-69
2022/10/29 04:20:17;;;;;;;13.45;6.93;;;17.50;99.90;;;;;;5021216;28;20033;-69
2022/10/29 04:22:43;;;;;;;16.83;6.88;;;17.50;99.90;;;;;;5021018;28;20444;-68
2022/10/29 04:25:09;;;;;;;11.55;6.18;;;17.40;99.90;;;;;;5020511;28;20033;-68
2022/10/29 04:27:35;;;;;;;13.80;6.72;;;17.40;99.90;;;;;;5020297;28;20018;-68
2022/10/29 04:30:02;;;;;;;12.55;6.13;;;17.40;99.90;;;;;;5018529;28;20095;-69
2022/10/29 04:32:27;;;;;;;10.25;5.95;;;17.40;99.90;;;;;;5020555;28;20550;-68
2022/10/29 04:34:53;;;;;;;11.52;6.22;;;17.40;99.90;;;;;;5019848;28;20045;-69
2022/10/29 04:37:19;;;;;;;18.67;7.25;;;17.40;99.90;;;;;;5020154;28;20084;-68
2022/10/29 04:39:46;;;;;;;13.90;6.30;;;17.40;99.90;;;;;;5020813;28;20200;-68
2022/10/29 04:42:11;;;;;;;15.85;6.05;;;17.40;99.90;;;;;;5018827;28;20042;-69
2022/10/29 04:44:37;;;;;;;8.90;5.80;;;17.30;99.90;;;;;;5019408;28;20068;-70
2022/10/29 04:47:02;;;;;;;13.70;6.60;;;17.40;99.90;;;;;;5020115;28;20524;-70
2022/10/29 04:49:28;;;;;;;10.52;6.43;;;17.30;99.90;;;;;;5019762;28;20040;-70
2022/10/29 04:51:55;;;;;;;14.77;6.47;;;17.30;99.90;;;;;;5020352;28;20102;-70
2022/10/29 04:54:20;;;;;;;12.60;6.20;;;17.30;99.90;;;;;;5017600;28;20056;-70
2022/10/29 04:56:46;;;;;;;14.07;6.90;;;17.30;99.90;;;;;;5019224;28;20041;-70
2022/10/29 04:59:13;;;;;;;11.65;5.85;;;17.30;99.90;;;;;;5019204;28;20033;-70
2022/10/29 05:01:39;;;;;;;10.32;6.05;;;17.20;99.90;;;;;;5021051;28;20121;-70
2022/10/29 05:04:04;;;;;;;16.73;6.43;;;17.20;99.90;;;;;;5021725;28;20116;-69
2022/10/29 05:06:30;;;;;;;10.82;6.35;;;17.20;99.90;;;;;;5019695;28;20467;-69
2022/10/29 05:08:55;;;;;;;9.73;5.90;;;17.20;99.90;;;;;;5020624;28;20761;-68
2022/10/29 05:11:22;;;;;;;11.85;6.18;;;17.20;99.90;;;;;;5020514;28;20029;-69
2022/10/29 05:13:48;;;;;;;11.73;6.00;;;17.20;99.90;;;;;;5019511;28;20116;-70
2022/10/29 05:16:14;;;;;;;14.20;6.65;;;17.20;99.90;;;;;;5020669;28;20070;-69
2022/10/29 05:18:39;;;;;;;10.40;6.22;;;17.20;99.90;;;;;;5019011;28;20049;-70
2022/10/29 05:21:05;;;;;;;14.35;6.88;;;17.20;99.90;;;;;;5019727;28;20116;-70
2022/10/29 05:23:31;;;;;;;17.10;7.45;;;17.20;99.90;;;;;;5020263;28;20087;-69
2022/10/29 05:25:57;;;;;;;11.10;6.05;;;17.20;99.90;;;;;;5019958;28;20034;-69
2022/10/29 05:28:23;;;;;;;11.63;5.53;;;17.20;99.90;;;;;;5018908;28;20045;-69
2022/10/29 05:30:50;;;;;;;16.13;7.03;;;17.10;99.90;;;;;;5018758;28;20064;-69
2022/10/29 05:33:18;;;;;;;13.88;6.30;;;17.10;99.90;;;;;;5019279;28;20034;-69
2022/10/29 05:35:44;;;;;;;12.65;6.47;;;17.10;99.90;;;;;;5019119;28;20143;-69
2022/10/29 05:38:12;;;;;;;12.25;5.93;;;17.10;99.90;;;;;;5020215;28;20079;-70
2022/10/29 05:40:38;;;;;;;14.70;7.50;;;17.00;99.90;;;;;;5020049;28;20033;-69
2022/10/29 05:43:04;;;;;;;16.23;7.40;;;17.10;99.90;;;;;;5018085;28;20057;-70
2022/10/29 05:45:29;;;;;;;12.57;5.80;;;17.10;99.90;;;;;;5017434;28;20052;-70
2022/10/29 05:48:00;;;;;;;12.82;6.35;;;17.10;99.90;;;;;;5018774;28;20037;-70
2022/10/29 05:50:27;;;;;;;14.30;6.50;;;17.00;99.90;;;;;;5016735;28;20215;-72
2022/10/29 05:52:58;;;;;;;13.48;6.15;;;17.00;99.90;;;;;;5019242;28;20484;-70
2022/10/29 05:55:24;;;;;;;11.10;6.13;;;17.00;99.90;;;;;;5019280;28;20124;-71
2022/10/29 05:57:58;;;;;;;11.60;6.38;;;17.00;99.90;;;;;;5019675;28;20022;-71
2022/10/29 06:00:25;;;;;;;11.52;6.85;;;16.90;99.90;;;;;;5024342;28;20040;-79
2022/10/29 06:02:51;;;;;;;14.48;7.75;;;16.90;99.90;;;;;;5042157;28;20018;-73
2022/10/29 06:05:16;;;;;;;15.60;6.90;;;16.90;99.90;;;;;;5028366;28;20512;-77
2022/10/29 06:07:43;;;;;;;11.93;7.20;;;16.80;99.90;;;;;;5022068;28;20109;-78
2022/10/29 06:10:09;;;;;;;16.67;8.35;;;16.80;99.90;;;;;;5022487;28;20065;-76
2022/10/29 06:12:34;;;;;;;21.20;8.82;;;16.80;99.90;;;;;;5026503;28;20550;-72
2022/10/29 06:15:00;;;;;;;17.98;8.32;;;16.80;99.90;;;;;;5022320;28;20029;-73
2022/10/29 06:17:26;;;;;;;12.95;7.65;;;16.80;99.90;;;;;;5024419;28;20061;-71
2022/10/29 06:19:51;;;;;;;16.65;7.70;;;16.80;99.90;;;;;;5019814;28;20033;-71
2022/10/29 06:22:17;;;;;;;11.35;6.50;;;16.80;99.90;;;;;;5018690;28;20029;-71
2022/10/29 06:24:42;;;;;;;14.57;6.28;;;16.80;99.90;;;;;;5020210;28;20045;-71
2022/10/29 06:27:08;;;;;;;11.52;6.53;;;16.80;99.90;;;;;;5018664;28;20643;-72
2022/10/29 06:29:34;;;;;;;11.15;5.78;;;16.80;99.90;;;;;;5017713;28;20219;-71
2022/10/29 06:31:59;;;;;;;13.52;7.20;;;16.80;99.90;;;;;;5017962;28;20650;-73
2022/10/29 06:34:25;;;;;;;11.15;5.72;;;16.80;99.90;;;;;;5020787;28;20060;-72
2022/10/29 06:36:50;;;;;;;14.25;6.95;;;16.80;99.90;;;;;;5018747;28;20040;-72
2022/10/29 06:39:16;;;;;;;10.82;6.47;;;16.80;99.90;;;;;;5018079;28;20084;-72
2022/10/29 06:41:41;;;;;;;13.40;6.72;;;16.80;99.90;;;;;;5016700;28;20116;-72
2022/10/29 06:44:07;;;;;;;9.98;6.40;;;16.80;99.90;;;;;;5026046;28;20410;-72
2022/10/29 06:46:35;;;;;;;16.08;6.70;;;16.80;99.90;;;;;;5017865;28;20025;-73
2022/10/29 06:49:01;;;;;;;13.57;7.15;;;16.80;99.90;;;;;;5019655;28;20014;-72
2022/10/29 06:51:27;;;;;;;13.15;7.25;;;16.90;99.90;;;;;;5016828;28;20030;-72
2022/10/29 06:53:53;;;;;;;9.80;6.03;;;16.80;99.90;;;;;;5025627;28;20078;-71
2022/10/29 06:56:19;;;;;;;11.68;6.97;;;16.90;99.90;;;;;;5032478;28;20037;-71
2022/10/29 06:58:45;;;;;;;12.30;6.85;;;16.90;99.90;;;;;;5033727;28;20030;-71
2022/10/29 07:01:11;;;;;;;12.07;6.88;;;16.90;99.90;;;;;;5032672;28;20121;-71
2022/10/29 07:03:36;;;;;;;11.93;6.45;;;16.90;99.90;;;;;;5032547;28;20021;-71
2022/10/29 07:06:02;;;;;;;14.70;6.45;;;16.90;99.90;;;;;;5032096;28;20095;-70
2022/10/29 07:08:29;;;;;;;11.38;6.75;;;17.00;99.90;;;;;;5032732;28;20033;-71
2022/10/29 07:10:55;;;;;;;13.25;6.82;;;17.00;99.90;;;;;;5034357;28;20033;-71
2022/10/29 07:13:21;;;;;;;12.65;6.88;;;17.00;99.90;;;;;;5033128;28;20195;-71
2022/10/29 07:15:46;;;;;;;11.55;6.85;;;17.10;99.90;;;;;;5023709;28;20037;-70
2022/10/29 07:18:12;;;;;;;9.93;6.25;;;17.10;99.90;;;;;;5022384;28;20029;-70
2022/10/29 07:20:44;;;;;;;9.85;6.05;;;17.10;99.90;;;;;;5028075;28;20415;-70
2022/10/29 07:23:10;;;;;;;12.93;6.45;;;17.10;99.90;;;;;;5022110;28;20353;-70
2022/10/29 07:25:37;;;;;;;13.18;7.18;;;17.20;99.90;;;;;;5022283;28;20499;-71
2022/10/29 07:28:09;;;;;;;11.07;6.50;;;17.20;99.90;;;;;;5021832;28;20507;-71
2022/10/29 07:30:35;;;;;;;14.70;6.93;;;17.20;99.90;;;;;;5022463;28;20025;-71
2022/10/29 07:33:00;;;;;;;11.70;6.80;;;17.30;99.90;;;;;;5022897;28;20026;-71
2022/10/29 07:35:26;;;;;;;12.20;6.25;;;17.30;99.90;;;;;;5020966;28;20022;-72
2022/10/29 07:37:58;;;;;;;8.10;6.10;;;17.30;99.90;;;;;;5021797;28;20029;-72
2022/10/29 07:40:24;;;;;;;11.52;6.65;;;17.30;99.90;;;;;;5022326;28;20025;-71
2022/10/29 07:42:52;;;;;;;13.25;6.25;;;17.40;99.90;;;;;;5021290;28;20050;-71
2022/10/29 07:45:18;;;;;;;12.52;6.50;;;17.40;99.90;;;;;;5022857;28;20075;-73
2022/10/29 07:47:44;;;;;;;14.35;7.13;;;17.50;99.90;;;;;;5021420;28;20029;-75
2022/10/29 07:50:10;;;;;;;10.90;6.20;;;17.50;99.90;;;;;;5019902;28;20043;-71
2022/10/29 07:52:36;;;;;;;12.38;7.05;;;17.50;99.90;;;;;;5021450;28;20532;-72
2022/10/29 07:55:01;;;;;;;14.75;6.78;;;17.60;99.90;;;;;;5020811;28;20112;-72
2022/10/29 07:57:27;;;;;;;12.10;6.47;;;17.60;99.90;;;;;;5039086;28;20262;-72
2022/10/29 07:59:53;;;;;;;14.20;6.88;;;17.60;99.90;;;;;;5022178;28;20037;-73
2022/10/29 08:02:19;;;;;;;14.25;6.13;;;17.70;99.90;;;;;;5021431;28;20091;-73
2022/10/29 08:04:45;;;;;;;15.77;6.88;;;17.70;99.90;;;;;;5019217;28;20484;-69
2022/10/29 08:07:10;;;;;;;19.30;8.18;;;17.80;99.90;;;;;;5023415;28;20036;-72
2022/10/29 08:09:36;;;;;;;15.20;6.70;;;17.80;99.90;;;;;;5019896;28;20025;-75
2022/10/29 08:12:03;;;;;;;16.00;6.97;;;17.90;99.90;;;;;;5020858;28;20017;-72
2022/10/29 08:14:29;;;;;;;10.57;6.05;;;17.90;99.90;;;;;;5024444;28;20429;-72
2022/10/29 08:16:55;;;;;;;13.82;7.35;;;18.00;99.90;;;;;;5019859;28;20059;-73
2022/10/29 08:19:21;;;;;;;16.48;6.65;;;18.00;99.90;;;;;;5021872;28;20109;-74
2022/10/29 08:21:47;;;;;;;12.73;6.65;;;18.00;99.90;;;;;;5021273;28;20032;-73
2022/10/29 08:24:12;;;;;;;11.90;7.43;;;18.00;99.90;;;;;;5020419;28;20064;-73
2022/10/29 08:26:38;;;;;;;15.23;7.15;;;18.10;99.90;;;;;;5023807;28;20029;-73
2022/10/29 08:29:04;;;;;;;18.40;6.88;;;18.10;99.90;;;;;;5031121;28;20136;-73
2022/10/29 08:31:29;;;;;;;13.23;6.60;;;18.10;99.90;;;;;;5022707;28;20025;-73
2022/10/29 08:33:56;;;;;;;13.30;6.70;;;18.20;99.90;;;;;;5022976;28;20120;-74
2022/10/29 08:36:21;;;;;;;10.82;6.43;;;18.20;99.90;;;;;;5023459;28;20044;-74
2022/10/29 08:38:48;;;;;;;11.88;6.55;;;18.20;99.90;;;;;;5024895;28;20025;-73
2022/10/29 08:41:28;;;;;;;13.13;7.60;;;18.20;99.90;;;;;;5022199;28;20388;-73
2022/10/29 08:44:09;;;;;;;15.68;7.47;;;18.30;99.90;;;;;;5023450;28;20064;-71
2022/10/29 08:46:38;;;;;;;14.07;7.53;;;18.30;99.90;;;;;;5021383;28;20424;-74
2022/10/29 08:49:12;;;;;;;11.63;6.38;;;18.40;99.90;;;;;;5021519;28;20022;-71
2022/10/29 08:51:43;;;;;;;;;;;18.40;99.90;;;;;;5019743;28;20033;-73
2022/10/29 08:54:13;;;;;;;10.90;5.70;;;18.50;99.90;;;;;;5018042;28;19909;-73
2022/10/29 08:56:49;;;;;;;14.07;7.00;;;18.60;99.90;;;;;;5018726;28;20103;-73
2022/10/29 08:59:27;;;;;;;13.38;6.85;;;18.60;99.90;;;;;;5017915;28;20107;-74
2022/10/29 09:01:52;;;;;;;11.63;6.03;;;18.60;99.90;;;;;;5019723;28;20044;-74
2022/10/29 09:04:25;;;;;;;14.13;6.63;;;18.70;99.90;;;;;;5019446;28;20034;-74
2022/10/29 09:07:09;;;;;;;15.35;7.53;;;18.70;99.90;;;;;;5019998;28;20064;-74
2022/10/29 09:09:45;;;;;;;9.48;6.50;;;18.80;99.90;;;;;;5020148;28;20032;-73
2022/10/29 09:12:35;;;;;;;15.52;7.60;;;18.90;99.90;;;;;;5021556;28;20029;-73
2022/10/29 09:15:29;;;;;;;15.70;7.00;;;18.90;99.90;;;;;;5017516;28;20025;-73
2022/10/29 09:18:10;;;;;;;14.80;6.70;;;19.00;99.90;;;;;;5021140;28;20385;-73
2022/10/29 09:20:57;;;;;;;15.25;6.70;;;19.00;99.90;;;;;;5019510;28;20033;-73
2022/10/29 09:23:27;;;;;;;14.75;7.28;;;19.10;99.90;;;;;;5019567;28;20037;-73
2022/10/29 09:26:08;;;;;;;13.50;7.07;;;19.10;99.90;;;;;;5018344;28;20065;-73
2022/10/29 09:28:52;;;;;;;15.02;7.00;;;19.10;99.90;;;;;;5020071;28;20063;-74
2022/10/29 09:31:24;;;;;;;13.07;6.38;;;19.20;99.90;;;;;;5019834;28;20045;-73
2022/10/29 09:33:53;;;;;;;12.35;6.32;;;19.30;99.90;;;;;;5025533;28;20052;-73
2022/10/29 09:36:21;;;;;;;11.73;6.38;;;19.30;99.90;;;;;;5025668;28;20036;-73
2022/10/29 09:38:47;;;;;;;11.75;5.85;;;19.40;99.90;;;;;;5019193;28;20121;-73
2022/10/29 09:41:13;;;;;;;10.80;6.15;;;19.50;99.90;;;;;;5018483;28;20122;-74
2022/10/29 09:43:45;;;;;;;9.98;5.70;;;19.60;99.90;;;;;;5020020;28;20049;-73
2022/10/29 09:46:33;;;;;;;21.33;6.82;;;19.60;99.90;;;;;;5019148;28;20049;-74
2022/10/29 09:49:14;;;;;;;15.50;5.93;;;19.60;99.90;;;;;;5019985;28;20184;-76
2022/10/29 09:51:54;;;;;;;8.88;4.70;;;19.70;99.90;;;;;;5019288;28;20061;-73
2022/10/29 09:54:22;;;;;;;16.20;5.32;;;19.80;99.90;;;;;;5019101;28;20037;-73
2022/10/29 09:56:48;;;;;;;14.50;5.13;;;19.80;99.90;;;;;;5021373;28;20033;-73
2022/10/29 09:59:21;;;;;;;11.50;5.25;;;19.80;99.90;;;;;;5019790;28;20960;-72
2022/10/29 10:01:47;;;;;;;11.27;5.50;;;19.90;99.90;;;;;;5017803;28;20057;-73
2022/10/29 10:04:25;;;;;;;16.50;6.13;;;20.00;99.90;;;;;;5021781;28;20064;-73
2022/10/29 10:07:05;;;;;;;11.82;5.88;;;20.00;99.90;;;;;;5019398;28;20045;-73
2022/10/29 10:09:52;;;;;;;9.82;5.18;;;20.10;99.90;;;;;;5019351;28;20056;-74
2022/10/29 10:12:20;;;;;;;11.27;5.50;;;20.10;99.90;;;;;;5021206;28;20037;-73
2022/10/29 10:14:49;;;;;;;10.77;5.50;;;20.10;99.90;;;;;;5022948;28;20041;-73
2022/10/29 10:17:15;;;;;;;10.65;5.80;;;20.20;99.90;;;;;;5017252;28;20267;-75
2022/10/29 10:19:47;;;;;;;12.70;5.72;;;20.20;99.90;;;;;;5019395;28;20042;-74
2022/10/29 10:22:23;;;;;;;11.15;5.95;;;20.20;99.80;;;;;;5019180;28;20033;-72
2022/10/29 10:24:49;;;;;;;12.40;6.32;;;20.30;99.80;;;;;;5020518;28;20029;-73
2022/10/29 10:27:17;;;;;;;14.02;6.22;;;20.30;99.80;;;;;;5019328;28;20516;-73
2022/10/29 10:30:07;;;;;;;10.40;5.97;;;20.40;99.80;;;;;;5022662;28;20094;-73
2022/10/29 10:32:33;;;;;;;11.70;5.47;;;20.40;99.80;;;;;;5023720;28;20065;-73
2022/10/29 10:34:58;;;;;;;12.80;5.18;;;20.50;99.80;;;;;;5016363;28;20409;-73
2022/10/29 10:37:24;;;;;;;11.77;5.65;;;20.50;99.70;;;;;;5023061;28;20564;-73
2022/10/29 10:39:51;;;;;;;12.68;6.03;;;20.50;99.60;;;;;;5024805;28;20068;-73
2022/10/29 10:42:21;;;;;;;10.05;6.22;;;20.50;99.50;;;;;;5022350;28;20029;-73
2022/10/29 10:44:56;;;;;;;12.52;5.78;;;20.50;99.40;;;;;;5023832;28;20047;-73
2022/10/29 10:47:26;;;;;;;13.90;5.00;;;20.60;99.40;;;;;;5025294;28;20037;-73
2022/10/29 10:50:08;;;;;;;11.88;5.50;;;20.60;99.40;;;;;;5034023;28;20381;-73
2022/10/29 10:52:34;;;;;;;10.95;5.93;;;20.60;99.30;;;;;;5026702;28;20091;-73
2022/10/29 10:55:15;;;;;;;10.30;5.45;;;20.60;99.20;;;;;;5027587;28;20033;-73
2022/10/29 10:57:48;;;;;;;14.45;6.32;;;20.60;99.10;;;;;;5027003;28;20068;-74
2022/10/29 11:00:34;;;;;;;10.05;5.03;;;20.70;99.10;;;;;;5026740;28;20457;-73
2022/10/29 11:03:18;;;;;;;41.03;6.03;;;20.70;99.20;;;;;;5025866;28;20579;-71
2022/10/29 11:05:53;;;;;;;11.57;5.55;;;20.70;99.10;;;;;;5026773;28;20561;-72
2022/10/29 11:08:31;;;;;;;10.75;5.47;;;20.70;99.00;;;;;;5023421;28;20030;-72
2022/10/29 11:11:07;;;;;;;9.52;5.50;;;20.70;99.00;;;;;;5027851;28;20445;-72
2022/10/29 11:13:33;;;;;;;13.98;5.90;;;20.70;99.00;;;;;;5022483;28;20392;-72
2022/10/29 11:16:14;;;;;;;13.32;5.70;;;20.70;99.00;;;;;;5022309;28;20097;-72
2022/10/29 11:18:52;;;;;;;12.95;6.70;;;20.70;99.20;;;;;;5023250;28;20052;-72
2022/10/29 11:21:18;;;;;;;11.25;5.55;;;20.70;98.80;;;;;;5021879;28;20485;-73
2022/10/29 11:24:08;;;;;;;10.80;5.68;;;20.80;98.80;;;;;;5023331;28;20034;-72
2022/10/29 11:26:43;;;;;;;13.00;6.05;;;20.80;98.70;;;;;;5019290;28;20536;-73
2022/10/29 11:29:27;;;;;;;12.32;5.80;;;20.80;98.70;;;;;;5027951;28;20025;-72
2022/10/29 11:32:07;;;;;;;10.25;4.75;;;20.80;98.70;;;;;;5023129;28;20496;-72
2022/10/29 11:34:55;;;;;;;13.18;6.20;;;20.80;98.70;;;;;;5022460;28;20550;-71
2022/10/29 11:37:41;;;;;;;10.07;5.38;;;20.80;98.60;;;;;;5021495;28;20508;-72
2022/10/29 11:40:32;;;;;;;11.27;5.88;;;20.80;98.60;;;;;;5021500;28;20104;-69
2022/10/29 11:43:00;;;;;;;10.50;5.72;;;20.80;98.60;;;;;;5020686;28;20560;-70
2022/10/29 11:45:41;;;;;;;15.88;6.72;;;20.80;98.60;;;;;;5021558;28;20045;-69
2022/10/29 11:48:25;;;;;;;13.38;6.00;;;20.80;98.50;;;;;;5022108;28;20064;-70
2022/10/29 11:51:28;;;;;;;11.32;5.82;;;20.90;98.60;;;;;;5022160;28;20036;-69
2022/10/29 11:54:03;;;;;;;12.90;5.82;;;20.90;98.50;;;;;;5015079;28;20057;-69
2022/10/29 11:56:47;;;;;;;13.02;6.03;;;20.90;98.50;;;;;;5020872;28;20385;-69
2022/10/29 11:59:39;;;;;;;11.80;5.15;;;20.90;98.50;;;;;;5021411;28;20064;-69
2022/10/29 12:02:38;;;;;;;12.52;5.63;;;20.90;98.50;;;;;;5020794;28;20041;-69
2022/10/29 12:05:19;;;;;;;11.50;6.20;;;21.00;98.50;;;;;;5020440;28;20065;-69
2022/10/29 12:08:17;;;;;;;7.75;5.22;;;21.00;98.50;;;;;;5020463;28;20058;-69
2022/10/29 12:11:16;;;;;;;11.27;5.07;;;21.10;98.40;;;;;;5019843;28;20052;-69
2022/10/29 12:13:46;;;;;;;12.93;5.70;;;21.20;98.40;;;;;;5023250;28;20042;-69
2022/10/29 12:16:34;;;;;;;11.77;5.68;;;21.20;98.30;;;;;;5022454;28;20044;-70
2022/10/29 12:19:44;;;;;;;13.73;6.00;;;21.20;98.30;;;;;;5020683;28;20025;-70
2022/10/29 12:22:16;;;;;;;12.02;5.95;;;21.30;98.30;;;;;;5019523;28;20073;-69
2022/10/29 12:24:49;;;;;;;10.38;6.07;;;21.30;98.20;;;;;;5020899;28;20030;-68
2022/10/29 12:27:32;;;;;;;10.68;6.38;;;21.40;98.20;;;;;;5021603;28;20038;-68
2022/10/29 12:29:58;;;;;;;12.35;6.32;;;21.40;98.20;;;;;;5021068;28;20112;-72
2022/10/29 12:32:42;;;;;;;11.13;5.25;;;21.40;98.20;;;;;;5019367;28;20041;-74
2022/10/29 12:35:12;;;;;;;11.00;5.65;;;21.50;98.20;;;;;;5020100;28;20033;-73
2022/10/29 12:38:09;;;;;;;12.15;6.30;;;21.60;98.10;;;;;;5018752;28;20052;-70
2022/10/29 12:40:39;;;;;;;14.10;5.90;;;21.60;98.10;;;;;;5022869;28;20116;-69
2022/10/29 12:43:10;;;;;;;10.50;6.53;;;21.60;98.10;;;;;;5018879;28;20034;-70
2022/10/29 12:45:49;;;;;;;17.85;6.30;;;21.60;98.10;;;;;;5019516;28;20046;-69
2022/10/29 12:48:36;;;;;;;11.55;6.00;;;21.50;98.10;;;;;;5018609;28;20034;-69
2022/10/29 12:51:10;;;;;;;11.98;6.57;;;21.60;98.10;;;;;;5021346;28;20029;-70
2022/10/29 12:53:53;;;;;;;10.85;6.15;;;21.60;98.10;;;;;;5020216;28;20052;-70
2022/10/29 12:56:19;;;;;;;15.63;7.28;;;21.50;98.00;;;;;;5023725;28;20109;-70
2022/10/29 12:58:49;;;;;;;12.70;6.22;;;21.60;98.00;;;;;;5020415;28;20033;-70